sensor_id;sensor_type;location;lat;lon;timestamp;pressure;altitude;pressure_sealevel;temperature;humidity
54172;BME280;40076;52.354;4.970;2023-06-24T00:00:29;102449.41;;;22.79;72.92
54172;BME280;40076;52.354;4.970;2023-06-24T00:02:58;102449.31;;;22.75;73.50
54172;BME280;40076;52.354;4.970;2023-06-24T00:05:26;102445.75;;;22.75;73.49
54172;BME280;40076;52.354;4.970;2023-06-24T00:07:52;102458.72;;;22.74;74.19
54172;BME280;40076;52.354;4.970;2023-06-24T00:10:18;102461.41;;;22.70;74.58
54172;BME280;40076;52.354;4.970;2023-06-24T00:12:44;102461.31;;;22.67;74.87
54172;BME280;40076;52.354;4.970;2023-06-24T00:15:10;102451.75;;;22.61;75.38
54172;BME280;40076;52.354;4.970;2023-06-24T00:17:35;102459.94;;;22.57;75.45
54172;BME280;40076;52.354;4.970;2023-06-24T00:20:01;102459.41;;;22.52;75.64
54172;BME280;40076;52.354;4.970;2023-06-24T00:22:29;102457.41;;;22.49;75.90
54172;BME280;40076;52.354;4.970;2023-06-24T00:24:55;102462.47;;;22.47;76.10
54172;BME280;40076;52.354;4.970;2023-06-24T00:27:21;102464.78;;;22.45;75.59
54172;BME280;40076;52.354;4.970;2023-06-24T00:29:47;102465.06;;;22.40;74.52
54172;BME280;40076;52.354;4.970;2023-06-24T00:32:15;102458.31;;;22.37;73.72
54172;BME280;40076;52.354;4.970;2023-06-24T00:34:41;102462.59;;;22.35;73.06
54172;BME280;40076;52.354;4.970;2023-06-24T00:37:10;102465.72;;;22.33;72.74
54172;BME280;40076;52.354;4.970;2023-06-24T00:39:48;102465.63;;;22.29;72.49
54172;BME280;40076;52.354;4.970;2023-06-24T00:42:36;102459.59;;;22.24;72.04
54172;BME280;40076;52.354;4.970;2023-06-24T00:45:03;102455.59;;;22.21;71.91
54172;BME280;40076;52.354;4.970;2023-06-24T00:47:31;102461.84;;;22.18;71.69
54172;BME280;40076;52.354;4.970;2023-06-24T00:50:08;102448.34;;;22.13;71.38
54172;BME280;40076;52.354;4.970;2023-06-24T00:52:35;102451.81;;;22.10;71.50
54172;BME280;40076;52.354;4.970;2023-06-24T00:55:03;102447.03;;;22.07;71.50
54172;BME280;40076;52.354;4.970;2023-06-24T00:57:35;102455.22;;;22.04;71.67
54172;BME280;40076;52.354;4.970;2023-06-24T01:00:03;102451.56;;;22.00;71.48
54172;BME280;40076;52.354;4.970;2023-06-24T01:02:33;102447.56;;;21.97;71.46
54172;BME280;40076;52.354;4.970;2023-06-24T01:05:22;102449.75;;;21.91;71.22
54172;BME280;40076;52.354;4.970;2023-06-24T01:07:50;102456.00;;;21.88;71.29
54172;BME280;40076;52.354;4.970;2023-06-24T01:10:21;102447.28;;;21.86;71.20
54172;BME280;40076;52.354;4.970;2023-06-24T01:12:49;102451.53;;;21.84;71.19
54172;BME280;40076;52.354;4.970;2023-06-24T01:15:18;102447.56;;;21.81;70.89
54172;BME280;40076;52.354;4.970;2023-06-24T01:17:54;102451.47;;;21.80;70.64
54172;BME280;40076;52.354;4.970;2023-06-24T01:23:20;102452.53;;;21.76;70.50
54172;BME280;40076;52.354;4.970;2023-06-24T01:26:20;102446.06;;;21.68;70.74
54172;BME280;40076;52.354;4.970;2023-06-24T01:29:17;102448.00;;;21.68;71.03
54172;BME280;40076;52.354;4.970;2023-06-24T01:31:58;102445.97;;;21.65;70.77
54172;BME280;40076;52.354;4.970;2023-06-24T01:34:29;102445.53;;;21.63;70.79
54172;BME280;40076;52.354;4.970;2023-06-24T01:37:16;102439.56;;;21.61;70.90
54172;BME280;40076;52.354;4.970;2023-06-24T01:39:49;102441.44;;;21.56;70.91
54172;BME280;40076;52.354;4.970;2023-06-24T01:42:17;102444.53;;;21.55;70.96
54172;BME280;40076;52.354;4.970;2023-06-24T01:44:47;102444.44;;;21.51;70.95
54172;BME280;40076;52.354;4.970;2023-06-24T01:47:17;102444.03;;;21.49;71.09
54172;BME280;40076;52.354;4.970;2023-06-24T01:49:44;102445.53;;;21.47;70.98
54172;BME280;40076;52.354;4.970;2023-06-24T01:52:11;102449.75;;;21.44;71.02
54172;BME280;40076;52.354;4.970;2023-06-24T01:54:39;102448.09;;;21.40;70.98
54172;BME280;40076;52.354;4.970;2023-06-24T01:57:06;102446.03;;;21.37;70.96
54172;BME280;40076;52.354;4.970;2023-06-24T01:59:34;102444.00;;;21.34;71.01
54172;BME280;40076;52.354;4.970;2023-06-24T02:02:03;102442.75;;;21.31;71.01
54172;BME280;40076;52.354;4.970;2023-06-24T02:04:31;102441.16;;;21.30;71.42
54172;BME280;40076;52.354;4.970;2023-06-24T02:07:00;102432.47;;;21.28;71.35
54172;BME280;40076;52.354;4.970;2023-06-24T02:09:28;102424.94;;;21.25;71.56
54172;BME280;40076;52.354;4.970;2023-06-24T02:11:56;102424.81;;;21.22;71.46
54172;BME280;40076;52.354;4.970;2023-06-24T02:14:22;102432.97;;;21.18;71.38
54172;BME280;40076;52.354;4.970;2023-06-24T02:16:49;102428.50;;;21.13;71.38
54172;BME280;40076;52.354;4.970;2023-06-24T02:22:22;102420.78;;;21.03;71.56
54172;BME280;40076;52.354;4.970;2023-06-24T02:24:49;102416.31;;;20.99;71.54
54172;BME280;40076;52.354;4.970;2023-06-24T02:27:16;102422.19;;;20.97;71.65
54172;BME280;40076;52.354;4.970;2023-06-24T02:29:41;102412.34;;;20.96;71.44
54172;BME280;40076;52.354;4.970;2023-06-24T02:32:08;102418.19;;;20.95;71.65
54172;BME280;40076;52.354;4.970;2023-06-24T02:34:34;102411.09;;;20.94;71.57
54172;BME280;40076;52.354;4.970;2023-06-24T02:36:59;102411.00;;;20.90;71.19
54172;BME280;40076;52.354;4.970;2023-06-24T02:39:25;102411.34;;;20.89;71.29
54172;BME280;40076;52.354;4.970;2023-06-24T02:41:50;102414.78;;;20.86;71.09
54172;BME280;40076;52.354;4.970;2023-06-24T02:44:16;102413.91;;;20.82;71.07
54172;BME280;40076;52.354;4.970;2023-06-24T02:46:43;102415.41;;;20.79;70.93
54172;BME280;40076;52.354;4.970;2023-06-24T02:49:12;102405.91;;;20.76;70.77
54172;BME280;40076;52.354;4.970;2023-06-24T02:51:39;102407.03;;;20.75;70.72
54172;BME280;40076;52.354;4.970;2023-06-24T02:54:09;102406.97;;;20.72;70.68
54172;BME280;40076;52.354;4.970;2023-06-24T02:56:35;102405.69;;;20.69;70.91
54172;BME280;40076;52.354;4.970;2023-06-24T02:59:07;102407.56;;;20.65;71.00
54172;BME280;40076;52.354;4.970;2023-06-24T03:01:35;102407.44;;;20.62;71.00
54172;BME280;40076;52.354;4.970;2023-06-24T03:04:04;102399.13;;;20.58;71.09
54172;BME280;40076;52.354;4.970;2023-06-24T03:06:33;102398.66;;;20.56;70.95
54172;BME280;40076;52.354;4.970;2023-06-24T03:09:04;102392.72;;;20.54;70.95
54172;BME280;40076;52.354;4.970;2023-06-24T03:11:29;102402.91;;;20.54;70.96
54172;BME280;40076;52.354;4.970;2023-06-24T03:13:55;102402.47;;;20.52;70.85
54172;BME280;40076;52.354;4.970;2023-06-24T03:16:21;102402.81;;;20.50;70.97
54172;BME280;40076;52.354;4.970;2023-06-24T03:18:46;102402.34;;;20.48;70.89
54172;BME280;40076;52.354;4.970;2023-06-24T03:21:12;102400.75;;;20.47;71.12
54172;BME280;40076;52.354;4.970;2023-06-24T03:23:37;102402.69;;;20.47;71.06
54172;BME280;40076;52.354;4.970;2023-06-24T03:26:03;102393.22;;;20.44;71.06
54172;BME280;40076;52.354;4.970;2023-06-24T03:28:47;102383.72;;;20.41;71.11
54172;BME280;40076;52.354;4.970;2023-06-24T03:31:13;102386.47;;;20.41;71.02
54172;BME280;40076;52.354;4.970;2023-06-24T03:34:03;102392.66;;;20.38;71.25
54172;BME280;40076;52.354;4.970;2023-06-24T03:36:28;102397.34;;;20.38;71.38
54172;BME280;40076;52.354;4.970;2023-06-24T03:38:54;102395.72;;;20.37;71.48
54172;BME280;40076;52.354;4.970;2023-06-24T03:41:19;102401.22;;;20.37;71.69
54172;BME280;40076;52.354;4.970;2023-06-24T03:43:46;102402.41;;;20.36;71.81
54172;BME280;40076;52.354;4.970;2023-06-24T03:46:12;102402.75;;;20.34;72.21
54172;BME280;40076;52.354;4.970;2023-06-24T03:48:37;102408.22;;;20.34;72.31
54172;BME280;40076;52.354;4.970;2023-06-24T03:51:03;102410.97;;;20.34;72.72
54172;BME280;40076;52.354;4.970;2023-06-24T03:53:29;102414.03;;;20.33;73.12
54172;BME280;40076;52.354;4.970;2023-06-24T03:55:54;102414.84;;;20.33;73.44
54172;BME280;40076;52.354;4.970;2023-06-24T03:58:19;102425.00;;;20.33;73.58
54172;BME280;40076;52.354;4.970;2023-06-24T04:00:46;102428.09;;;20.31;73.89
54172;BME280;40076;52.354;4.970;2023-06-24T04:03:14;102422.94;;;20.30;74.22
54172;BME280;40076;52.354;4.970;2023-06-24T04:05:40;102418.63;;;20.29;74.27
54172;BME280;40076;52.354;4.970;2023-06-24T04:08:05;102418.16;;;20.27;74.47
54172;BME280;40076;52.354;4.970;2023-06-24T04:10:32;102417.38;;;20.26;74.69
54172;BME280;40076;52.354;4.970;2023-06-24T04:12:58;102414.97;;;20.25;75.09
54172;BME280;40076;52.354;4.970;2023-06-24T04:15:23;102412.22;;;20.25;75.18
54172;BME280;40076;52.354;4.970;2023-06-24T04:17:49;102408.66;;;20.24;75.51
54172;BME280;40076;52.354;4.970;2023-06-24T04:20:14;102411.75;;;20.23;75.58
54172;BME280;40076;52.354;4.970;2023-06-24T04:22:40;102417.25;;;20.23;75.96
54172;BME280;40076;52.354;4.970;2023-06-24T04:25:06;102419.19;;;20.22;76.04
54172;BME280;40076;52.354;4.970;2023-06-24T04:27:32;102419.19;;;20.22;76.20
54172;BME280;40076;52.354;4.970;2023-06-24T04:30:01;102421.50;;;20.20;76.26
54172;BME280;40076;52.354;4.970;2023-06-24T04:32:27;102413.94;;;20.17;76.55
54172;BME280;40076;52.354;4.970;2023-06-24T04:34:52;102418.63;;;20.17;76.43
54172;BME280;40076;52.354;4.970;2023-06-24T04:37:18;102423.31;;;20.16;76.84
54172;BME280;40076;52.354;4.970;2023-06-24T04:39:44;102434.63;;;20.15;76.83
54172;BME280;40076;52.354;4.970;2023-06-24T04:42:09;102430.66;;;20.12;77.26
54172;BME280;40076;52.354;4.970;2023-06-24T04:44:36;102434.06;;;20.09;77.57
54172;BME280;40076;52.354;4.970;2023-06-24T04:47:01;102430.88;;;20.07;77.60
54172;BME280;40076;52.354;4.970;2023-06-24T04:49:27;102430.06;;;20.07;77.95
54172;BME280;40076;52.354;4.970;2023-06-24T04:51:52;102429.28;;;20.06;77.98
54172;BME280;40076;52.354;4.970;2023-06-24T04:54:18;102422.22;;;20.05;78.33
54172;BME280;40076;52.354;4.970;2023-06-24T04:56:43;102427.69;;;20.05;78.46
54172;BME280;40076;52.354;4.970;2023-06-24T04:59:10;102441.41;;;20.05;78.53
54172;BME280;40076;52.354;4.970;2023-06-24T05:01:45;102432.38;;;20.04;78.63
54172;BME280;40076;52.354;4.970;2023-06-24T05:04:11;102438.31;;;20.07;79.10
54172;BME280;40076;52.354;4.970;2023-06-24T05:06:36;102436.34;;;20.07;78.88
54172;BME280;40076;52.354;4.970;2023-06-24T05:09:02;102446.53;;;20.07;78.76
54172;BME280;40076;52.354;4.970;2023-06-24T05:11:27;102443.44;;;20.08;78.65
54172;BME280;40076;52.354;4.970;2023-06-24T05:13:53;102438.75;;;20.09;79.03
54172;BME280;40076;52.354;4.970;2023-06-24T05:16:19;102443.91;;;20.10;78.85
54172;BME280;40076;52.354;4.970;2023-06-24T05:18:45;102445.19;;;20.13;78.74
54172;BME280;40076;52.354;4.970;2023-06-24T05:21:11;102443.34;;;20.17;79.03
54172;BME280;40076;52.354;4.970;2023-06-24T05:23:36;102448.47;;;20.18;78.97
54172;BME280;40076;52.354;4.970;2023-06-24T05:26:02;102448.16;;;20.20;79.08
54172;BME280;40076;52.354;4.970;2023-06-24T05:28:27;102450.56;;;20.21;79.17
54172;BME280;40076;52.354;4.970;2023-06-24T05:30:52;102444.69;;;20.23;79.59
54172;BME280;40076;52.354;4.970;2023-06-24T05:33:18;102437.38;;;20.27;79.70
54172;BME280;40076;52.354;4.970;2023-06-24T05:35:43;102445.72;;;20.30;80.40
54172;BME280;40076;52.354;4.970;2023-06-24T05:38:09;102443.13;;;20.34;80.67
54172;BME280;40076;52.354;4.970;2023-06-24T05:40:35;102454.19;;;20.37;80.88
54172;BME280;40076;52.354;4.970;2023-06-24T05:43:00;102453.50;;;20.40;81.50
54172;BME280;40076;52.354;4.970;2023-06-24T05:45:26;102455.56;;;20.44;81.69
54172;BME280;40076;52.354;4.970;2023-06-24T05:47:52;102450.63;;;20.49;81.98
54172;BME280;40076;52.354;4.970;2023-06-24T05:50:17;102457.81;;;20.54;82.26
54172;BME280;40076;52.354;4.970;2023-06-24T05:52:43;102451.66;;;20.57;82.58
54172;BME280;40076;52.354;4.970;2023-06-24T05:55:24;102456.88;;;20.62;83.02
54172;BME280;40076;52.354;4.970;2023-06-24T05:57:50;102458.22;;;20.68;83.12
54172;BME280;40076;52.354;4.970;2023-06-24T06:00:17;102454.81;;;20.71;83.86
54172;BME280;40076;52.354;4.970;2023-06-24T06:02:49;102448.72;;;20.77;83.86
54172;BME280;40076;52.354;4.970;2023-06-24T06:05:17;102451.22;;;20.83;83.98
54172;BME280;40076;52.354;4.970;2023-06-24T06:07:43;102450.16;;;20.87;84.23
54172;BME280;40076;52.354;4.970;2023-06-24T06:10:09;102449.56;;;20.94;84.57
54172;BME280;40076;52.354;4.970;2023-06-24T06:12:35;102447.72;;;20.98;84.65
54172;BME280;40076;52.354;4.970;2023-06-24T06:15:01;102447.13;;;21.04;84.72
54172;BME280;40076;52.354;4.970;2023-06-24T06:17:26;102449.25;;;21.11;84.90
54172;BME280;40076;52.354;4.970;2023-06-24T06:20:14;102450.63;;;21.17;84.84
54172;BME280;40076;52.354;4.970;2023-06-24T06:22:39;102455.84;;;21.22;84.95
54172;BME280;40076;52.354;4.970;2023-06-24T06:25:05;102456.41;;;21.28;84.83
54172;BME280;40076;52.354;4.970;2023-06-24T06:27:34;102451.47;;;21.33;85.13
54172;BME280;40076;52.354;4.970;2023-06-24T06:30:04;102450.84;;;21.40;85.02
54172;BME280;40076;52.354;4.970;2023-06-24T06:35:50;102454.28;;;21.52;84.12
54172;BME280;40076;52.354;4.970;2023-06-24T06:38:15;102450.84;;;21.55;83.98
54172;BME280;40076;52.354;4.970;2023-06-24T06:40:41;102448.16;;;21.59;84.13
54172;BME280;40076;52.354;4.970;2023-06-24T06:43:07;102443.56;;;21.63;83.89
54172;BME280;40076;52.354;4.970;2023-06-24T06:45:35;102445.25;;;21.68;84.37
54172;BME280;40076;52.354;4.970;2023-06-24T06:48:01;102450.50;;;21.73;83.59
54172;BME280;40076;52.354;4.970;2023-06-24T06:50:32;102443.47;;;21.75;83.14
54172;BME280;40076;52.354;4.970;2023-06-24T06:52:58;102454.66;;;21.82;82.70
54172;BME280;40076;52.354;4.970;2023-06-24T06:58:44;102460.56;;;21.97;82.51
54172;BME280;40076;52.354;4.970;2023-06-24T07:04:14;102458.84;;;22.08;82.16
54172;BME280;40076;52.354;4.970;2023-06-24T07:06:39;102452.63;;;22.11;81.84
54172;BME280;40076;52.354;4.970;2023-06-24T07:09:05;102448.44;;;22.17;81.77
54172;BME280;40076;52.354;4.970;2023-06-24T07:11:30;102455.59;;;22.21;81.92
54172;BME280;40076;52.354;4.970;2023-06-24T07:13:56;102451.78;;;22.26;81.79
54172;BME280;40076;52.354;4.970;2023-06-24T07:16:21;102448.28;;;22.29;81.79
54172;BME280;40076;52.354;4.970;2023-06-24T07:18:47;102442.09;;;22.32;81.33
54172;BME280;40076;52.354;4.970;2023-06-24T07:21:13;102445.34;;;22.38;81.27
54172;BME280;40076;52.354;4.970;2023-06-24T07:23:38;102439.94;;;22.41;81.33
54172;BME280;40076;52.354;4.970;2023-06-24T07:26:07;102442.75;;;22.45;81.24
54172;BME280;40076;52.354;4.970;2023-06-24T07:28:32;102444.44;;;22.49;81.28
54172;BME280;40076;52.354;4.970;2023-06-24T07:31:00;102442.19;;;22.55;81.04
54172;BME280;40076;52.354;4.970;2023-06-24T07:33:26;102441.88;;;22.60;80.77
54172;BME280;40076;52.354;4.970;2023-06-24T07:35:54;102442.31;;;22.62;80.55
54172;BME280;40076;52.354;4.970;2023-06-24T07:38:47;102444.78;;;22.67;80.77
54172;BME280;40076;52.354;4.970;2023-06-24T07:41:12;102446.47;;;22.71;80.51
54172;BME280;40076;52.354;4.970;2023-06-24T07:43:38;102447.72;;;22.74;80.36
54172;BME280;40076;52.354;4.970;2023-06-24T07:46:04;102452.94;;;22.79;80.38
54172;BME280;40076;52.354;4.970;2023-06-24T07:48:29;102458.59;;;22.86;80.43
54172;BME280;40076;52.354;4.970;2023-06-24T07:50:55;102449.22;;;22.91;80.12
54172;BME280;40076;52.354;4.970;2023-06-24T07:53:22;102446.19;;;22.96;79.91
54172;BME280;40076;52.354;4.970;2023-06-24T07:55:51;102449.44;;;23.01;79.38
54172;BME280;40076;52.354;4.970;2023-06-24T07:58:16;102449.50;;;23.05;79.84
54172;BME280;40076;52.354;4.970;2023-06-24T08:00:43;102453.50;;;23.07;79.50
54172;BME280;40076;52.354;4.970;2023-06-24T08:03:08;102454.34;;;23.12;79.54
54172;BME280;40076;52.354;4.970;2023-06-24T08:05:46;102460.75;;;23.16;79.38
54172;BME280;40076;52.354;4.970;2023-06-24T08:08:12;102467.56;;;23.22;79.24
54172;BME280;40076;52.354;4.970;2023-06-24T08:10:43;102449.13;;;23.26;78.92
54172;BME280;40076;52.354;4.970;2023-06-24T08:27:21;102452.72;;;23.49;78.00
54172;BME280;40076;52.354;4.970;2023-06-24T08:29:49;102457.94;;;23.54;77.68
54172;BME280;40076;52.354;4.970;2023-06-24T08:32:15;102450.13;;;23.60;77.85
54172;BME280;40076;52.354;4.970;2023-06-24T08:34:40;102451.84;;;23.68;78.33
54172;BME280;40076;52.354;4.970;2023-06-24T08:37:06;102456.69;;;23.74;77.75
54172;BME280;40076;52.354;4.970;2023-06-24T08:39:42;102449.31;;;23.82;77.36
54172;BME280;40076;52.354;4.970;2023-06-24T08:42:08;102458.50;;;23.90;77.85
54172;BME280;40076;52.354;4.970;2023-06-24T08:44:33;102459.41;;;23.97;77.32
54172;BME280;40076;52.354;4.970;2023-06-24T08:50:21;102453.28;;;24.11;75.53
54172;BME280;40076;52.354;4.970;2023-06-24T08:52:51;102454.97;;;24.15;75.01
54172;BME280;40076;52.354;4.970;2023-06-24T08:55:19;102453.84;;;24.20;74.57
54172;BME280;40076;52.354;4.970;2023-06-24T08:57:47;102455.13;;;24.26;74.27
54172;BME280;40076;52.354;4.970;2023-06-24T09:00:15;102445.31;;;24.29;73.94
54172;BME280;40076;52.354;4.970;2023-06-24T09:02:41;102455.66;;;24.35;74.14
54172;BME280;40076;52.354;4.970;2023-06-24T09:05:09;102449.41;;;24.42;73.65
54172;BME280;40076;52.354;4.970;2023-06-24T09:07:34;102456.59;;;24.46;73.45
54172;BME280;40076;52.354;4.970;2023-06-24T09:10:00;102449.56;;;24.52;72.90
54172;BME280;40076;52.354;4.970;2023-06-24T09:12:31;102455.56;;;24.58;73.25
54172;BME280;40076;52.354;4.970;2023-06-24T09:14:57;102448.91;;;24.63;73.10
54172;BME280;40076;52.354;4.970;2023-06-24T09:17:22;102446.63;;;24.68;72.94
54172;BME280;40076;52.354;4.970;2023-06-24T09:19:48;102447.06;;;24.74;73.13
54172;BME280;40076;52.354;4.970;2023-06-24T09:22:14;102448.31;;;24.80;73.09
54172;BME280;40076;52.354;4.970;2023-06-24T09:24:45;102444.06;;;24.86;72.84
54172;BME280;40076;52.354;4.970;2023-06-24T09:27:15;102448.47;;;24.90;72.67
54172;BME280;40076;52.354;4.970;2023-06-24T09:29:42;102441.81;;;24.95;72.70
54172;BME280;40076;52.354;4.970;2023-06-24T09:32:08;102451.38;;;25.01;72.50
54172;BME280;40076;52.354;4.970;2023-06-24T09:34:34;102443.53;;;25.07;71.52
54172;BME280;40076;52.354;4.970;2023-06-24T09:36:59;102437.63;;;25.08;71.19
54172;BME280;40076;52.354;4.970;2023-06-24T09:39:26;102438.44;;;25.12;70.90
54172;BME280;40076;52.354;4.970;2023-06-24T09:44:21;102442.06;;;25.20;70.36
54172;BME280;40076;52.354;4.970;2023-06-24T09:46:47;102436.97;;;25.25;70.44
54172;BME280;40076;52.354;4.970;2023-06-24T09:49:13;102436.28;;;25.32;70.18
54172;BME280;40076;52.354;4.970;2023-06-24T09:51:40;102438.31;;;25.38;69.85
54172;BME280;40076;52.354;4.970;2023-06-24T09:54:16;102429.28;;;25.45;69.13
54172;BME280;40076;52.354;4.970;2023-06-24T09:56:51;102430.94;;;25.53;68.70
54172;BME280;40076;52.354;4.970;2023-06-24T09:59:19;102429.75;;;25.58;67.91
54172;BME280;40076;52.354;4.970;2023-06-24T10:01:48;102432.59;;;25.61;66.74
54172;BME280;40076;52.354;4.970;2023-06-24T10:04:18;102434.22;;;25.66;66.00
54172;BME280;40076;52.354;4.970;2023-06-24T10:06:45;102430.69;;;25.72;65.19
54172;BME280;40076;52.354;4.970;2023-06-24T10:09:10;102422.44;;;25.76;64.28
54172;BME280;40076;52.354;4.970;2023-06-24T10:11:39;102424.03;;;25.81;64.37
54172;BME280;40076;52.354;4.970;2023-06-24T10:14:04;102424.47;;;25.86;64.96
54172;BME280;40076;52.354;4.970;2023-06-24T10:16:29;102421.75;;;25.93;64.82
54172;BME280;40076;52.354;4.970;2023-06-24T10:19:03;102420.63;;;26.01;64.78
54172;BME280;40076;52.354;4.970;2023-06-24T10:21:51;102417.91;;;26.08;64.78
54172;BME280;40076;52.354;4.970;2023-06-24T10:24:38;102413.97;;;26.13;64.07
54172;BME280;40076;52.354;4.970;2023-06-24T10:27:19;102412.41;;;26.16;62.35
54172;BME280;40076;52.354;4.970;2023-06-24T10:29:48;102408.84;;;26.19;62.55
54172;BME280;40076;52.354;4.970;2023-06-24T10:32:14;102409.28;;;26.24;62.11
54172;BME280;40076;52.354;4.970;2023-06-24T10:34:44;102408.53;;;26.27;61.16
54172;BME280;40076;52.354;4.970;2023-06-24T10:37:20;102399.06;;;26.32;60.23
54172;BME280;40076;52.354;4.970;2023-06-24T10:44:51;102397.53;;;26.45;59.56
54172;BME280;40076;52.354;4.970;2023-06-24T10:47:17;102398.72;;;26.51;58.96
54172;BME280;40076;52.354;4.970;2023-06-24T10:49:43;102399.13;;;26.57;58.58
54172;BME280;40076;52.354;4.970;2023-06-24T10:52:09;102403.91;;;26.60;57.88
54172;BME280;40076;52.354;4.970;2023-06-24T10:54:39;102401.13;;;26.63;58.22
54172;BME280;40076;52.354;4.970;2023-06-24T10:57:05;102400.78;;;26.68;57.16
54172;BME280;40076;52.354;4.970;2023-06-24T10:59:35;102391.25;;;26.73;56.57
54172;BME280;40076;52.354;4.970;2023-06-24T11:02:00;102395.66;;;26.77;55.13
54172;BME280;40076;52.354;4.970;2023-06-24T11:04:25;102390.91;;;26.81;55.35
54172;BME280;40076;52.354;4.970;2023-06-24T11:07:01;102391.31;;;26.83;55.64
54172;BME280;40076;52.354;4.970;2023-06-24T11:09:27;102390.91;;;26.85;55.37
54172;BME280;40076;52.354;4.970;2023-06-24T11:11:52;102395.28;;;26.89;55.55
54172;BME280;40076;52.354;4.970;2023-06-24T11:14:21;102388.19;;;26.92;55.27
54172;BME280;40076;52.354;4.970;2023-06-24T11:16:46;102395.72;;;26.99;55.98
54172;BME280;40076;52.354;4.970;2023-06-24T11:19:12;102394.53;;;27.07;55.82
54172;BME280;40076;52.354;4.970;2023-06-24T11:21:37;102390.59;;;27.15;55.25
54172;BME280;40076;52.354;4.970;2023-06-24T11:24:03;102385.84;;;27.22;54.62
54172;BME280;40076;52.354;4.970;2023-06-24T11:26:29;102389.00;;;27.28;54.55
54172;BME280;40076;52.354;4.970;2023-06-24T11:28:54;102387.81;;;27.33;54.32
54172;BME280;40076;52.354;4.970;2023-06-24T11:31:27;102393.75;;;27.35;54.79
54172;BME280;40076;52.354;4.970;2023-06-24T11:33:52;102380.28;;;27.37;54.89
54172;BME280;40076;52.354;4.970;2023-06-24T11:36:22;102373.16;;;27.36;54.83
54172;BME280;40076;52.354;4.970;2023-06-24T11:38:47;102381.88;;;27.38;54.53
54172;BME280;40076;52.354;4.970;2023-06-24T11:41:14;102374.72;;;27.37;54.85
54172;BME280;40076;52.354;4.970;2023-06-24T11:43:46;102379.09;;;27.38;55.74
54172;BME280;40076;52.354;4.970;2023-06-24T11:46:23;102375.13;;;27.39;55.88
54172;BME280;40076;52.354;4.970;2023-06-24T11:48:49;102376.69;;;27.40;55.92
54172;BME280;40076;52.354;4.970;2023-06-24T11:51:14;102367.97;;;27.41;56.26
54172;BME280;40076;52.354;4.970;2023-06-24T11:53:44;102373.16;;;27.43;55.86
54172;BME280;40076;52.354;4.970;2023-06-24T11:56:11;102367.97;;;27.41;55.88
54172;BME280;40076;52.354;4.970;2023-06-24T11:58:36;102375.50;;;27.41;56.80
54172;BME280;40076;52.354;4.970;2023-06-24T12:01:02;102370.75;;;27.41;56.89
54172;BME280;40076;52.354;4.970;2023-06-24T12:03:28;102366.00;;;27.42;57.03
54172;BME280;40076;52.354;4.970;2023-06-24T12:05:54;102362.03;;;27.46;56.75
54172;BME280;40076;52.354;4.970;2023-06-24T12:08:19;102362.44;;;27.52;56.91
54172;BME280;40076;52.354;4.970;2023-06-24T12:10:45;102365.22;;;27.55;55.98
54172;BME280;40076;52.354;4.970;2023-06-24T12:13:11;102363.25;;;27.56;55.18
54172;BME280;40076;52.354;4.970;2023-06-24T12:15:36;102362.44;;;27.55;55.32
54172;BME280;40076;52.354;4.970;2023-06-24T12:18:02;102357.69;;;27.56;55.62
54172;BME280;40076;52.354;4.970;2023-06-24T12:20:29;102358.88;;;27.58;55.98
54172;BME280;40076;52.354;4.970;2023-06-24T12:22:55;102357.31;;;27.61;56.44
54172;BME280;40076;52.354;4.970;2023-06-24T12:25:20;102358.47;;;27.63;56.52
54172;BME280;40076;52.354;4.970;2023-06-24T12:27:46;102359.25;;;27.68;56.15
54172;BME280;40076;52.354;4.970;2023-06-24T12:30:12;102349.31;;;27.70;55.97
54172;BME280;40076;52.354;4.970;2023-06-24T12:32:38;102354.88;;;27.74;56.24
54172;BME280;40076;52.354;4.970;2023-06-24T12:35:04;102345.34;;;27.78;55.55
54172;BME280;40076;52.354;4.970;2023-06-24T12:37:33;102349.69;;;27.79;55.73
54172;BME280;40076;52.354;4.970;2023-06-24T12:40:03;102346.94;;;27.83;56.17
54172;BME280;40076;52.354;4.970;2023-06-24T12:42:29;102342.94;;;27.91;55.39
54172;BME280;40076;52.354;4.970;2023-06-24T12:44:54;102344.50;;;27.99;54.54
54172;BME280;40076;52.354;4.970;2023-06-24T12:47:20;102338.13;;;28.06;54.68
54172;BME280;40076;52.354;4.970;2023-06-24T12:49:45;102340.09;;;28.12;54.91
54172;BME280;40076;52.354;4.970;2023-06-24T12:52:12;102340.06;;;28.19;54.84
54172;BME280;40076;52.354;4.970;2023-06-24T12:54:38;102342.44;;;28.24;54.48
54172;BME280;40076;52.354;4.970;2023-06-24T12:57:04;102343.59;;;28.30;54.19
54172;BME280;40076;52.354;4.970;2023-06-24T12:59:29;102343.19;;;28.35;54.34
54172;BME280;40076;52.354;4.970;2023-06-24T13:01:54;102341.56;;;28.41;54.36
54172;BME280;40076;52.354;4.970;2023-06-24T13:04:20;102338.38;;;28.43;54.02
54172;BME280;40076;52.354;4.970;2023-06-24T13:06:48;102337.59;;;28.42;53.15
54172;BME280;40076;52.354;4.970;2023-06-24T13:09:14;102334.41;;;28.44;53.95
54172;BME280;40076;52.354;4.970;2023-06-24T13:11:39;102333.56;;;28.51;53.39
54172;BME280;40076;52.354;4.970;2023-06-24T13:14:05;102343.47;;;28.55;52.41
54172;BME280;40076;52.354;4.970;2023-06-24T13:16:31;102335.50;;;28.57;52.03
54172;BME280;40076;52.354;4.970;2023-06-24T13:18:56;102341.06;;;28.61;52.08
54172;BME280;40076;52.354;4.970;2023-06-24T13:21:21;102332.69;;;28.64;51.89
54172;BME280;40076;52.354;4.970;2023-06-24T13:23:48;102330.69;;;28.68;52.32
54172;BME280;40076;52.354;4.970;2023-06-24T13:26:13;102336.59;;;28.74;52.16
54172;BME280;40076;52.354;4.970;2023-06-24T13:28:39;102328.63;;;28.79;50.79
54172;BME280;40076;52.354;4.970;2023-06-24T13:31:04;102331.78;;;28.85;51.29
54172;BME280;40076;52.354;4.970;2023-06-24T13:33:30;102329.75;;;28.89;50.72